createdAt,value
2018-10-16T00:02:05.223Z,48.84
2018-10-16T00:04:32.663Z,48.15
2018-10-16T00:07:00.101Z,47.68
2018-10-16T00:09:27.539Z,48.39
2018-10-16T00:11:54.967Z,48.17
2018-10-16T00:14:22.397Z,48.11
2018-10-16T00:16:49.823Z,48.55
2018-10-16T00:19:17.259Z,48.00
2018-10-16T00:21:44.683Z,47.90
2018-10-16T00:24:12.132Z,47.65
2018-10-16T00:26:39.556Z,47.56
2018-10-16T00:29:06.995Z,47.58
2018-10-16T00:31:34.423Z,48.03
2018-10-16T00:34:01.860Z,47.69
2018-10-16T00:36:29.293Z,47.65
2018-10-16T00:38:56.732Z,48.02
2018-10-16T00:41:24.164Z,48.42
2018-10-16T00:43:51.608Z,48.21
2018-10-16T00:46:19.059Z,48.03
2018-10-16T00:48:46.484Z,48.17
2018-10-16T00:51:13.917Z,48.29
2018-10-16T00:53:41.347Z,48.62
2018-10-16T00:56:08.783Z,48.65
2018-10-16T00:58:36.219Z,48.63
2018-10-16T01:01:03.659Z,48.69
2018-10-16T01:03:31.172Z,48.67
2018-10-16T01:05:58.606Z,49.24
2018-10-16T01:08:26.048Z,48.64
2018-10-16T01:10:53.483Z,48.82
2018-10-16T01:13:20.911Z,49.05
2018-10-16T01:15:48.426Z,48.93
2018-10-16T01:18:15.859Z,49.18
2018-10-16T01:20:43.312Z,48.48
2018-10-16T01:23:10.738Z,49.10
2018-10-16T01:25:38.174Z,49.11
2018-10-16T01:28:05.616Z,48.46
2018-10-16T01:30:33.096Z,48.83
2018-10-16T01:33:00.538Z,48.77
2018-10-16T01:35:28.024Z,48.35
2018-10-16T01:37:55.451Z,48.62
2018-10-16T01:40:22.901Z,48.72
2018-10-16T01:42:50.330Z,48.20
2018-10-16T01:45:17.764Z,48.29
2018-10-16T01:47:45.288Z,48.35
2018-10-16T01:50:12.727Z,47.93
2018-10-16T01:52:40.220Z,48.50
2018-10-16T01:55:07.669Z,48.66
2018-10-16T01:57:35.136Z,48.59
2018-10-16T02:00:02.580Z,48.73
2018-10-16T02:02:30.083Z,48.32
2018-10-16T02:04:57.544Z,48.06
2018-10-16T02:07:24.982Z,48.30
2018-10-16T02:09:52.415Z,48.48
2018-10-16T02:12:19.879Z,47.66
2018-10-16T02:14:47.418Z,47.96
2018-10-16T02:17:14.767Z,48.23
2018-10-16T02:19:42.222Z,48.19
2018-10-16T02:22:09.723Z,48.04
2018-10-16T02:24:37.246Z,47.65
2018-10-16T02:27:04.732Z,48.27
2018-10-16T02:29:32.292Z,48.59
2018-10-16T02:31:59.748Z,47.84
2018-10-16T02:34:27.211Z,48.53
2018-10-16T02:36:54.651Z,48.10
2018-10-16T02:39:22.107Z,48.07
2018-10-16T02:41:49.576Z,48.05
2018-10-16T02:44:17.041Z,47.88
2018-10-16T02:46:44.496Z,47.78
2018-10-16T02:49:11.956Z,47.43
2018-10-16T02:51:39.386Z,47.76
2018-10-16T02:54:06.916Z,48.17
2018-10-16T02:56:34.353Z,48.09
2018-10-16T02:59:01.791Z,47.91
2018-10-16T03:01:29.228Z,47.43
2018-10-16T03:03:56.670Z,47.76
2018-10-16T03:06:24.160Z,48.23
2018-10-16T03:08:51.589Z,47.30
2018-10-16T03:11:19.073Z,47.74
2018-10-16T03:13:46.532Z,47.40
2018-10-16T03:16:13.979Z,47.45
2018-10-16T03:18:41.429Z,47.76
2018-10-16T03:21:08.847Z,47.27
2018-10-16T03:23:42.603Z,47.45
2018-10-16T03:26:10.046Z,47.61
2018-10-16T03:28:37.490Z,47.79
2018-10-16T03:31:04.923Z,48.02
2018-10-16T03:33:32.363Z,47.31
2018-10-16T03:35:59.799Z,48.00
2018-10-16T03:38:27.231Z,46.81
2018-10-16T03:40:54.671Z,47.63
2018-10-16T03:43:22.099Z,47.62
2018-10-16T03:45:49.542Z,48.19
2018-10-16T03:48:16.976Z,48.06
2018-10-16T03:50:44.408Z,47.37
2018-10-16T03:53:11.840Z,48.22
2018-10-16T03:55:39.283Z,48.01
2018-10-16T03:58:06.727Z,48.01
2018-10-16T04:00:34.160Z,48.41
2018-10-16T04:03:01.593Z,48.61
2018-10-16T04:05:29.051Z,48.36
2018-10-16T04:07:56.467Z,48.00
2018-10-16T04:10:23.911Z,47.80
2018-10-16T04:12:51.353Z,48.02
2018-10-16T04:15:18.792Z,47.86
2018-10-16T04:17:46.305Z,48.24
2018-10-16T04:20:13.711Z,48.47
2018-10-16T04:22:41.129Z,48.25
2018-10-16T04:25:08.979Z,47.88
2018-10-16T04:27:36.387Z,48.55
2018-10-16T04:30:03.800Z,48.16
2018-10-16T04:32:31.223Z,48.01
2018-10-16T04:34:58.642Z,48.17
2018-10-16T04:37:26.050Z,48.55
2018-10-16T04:39:53.464Z,48.26
2018-10-16T04:42:20.912Z,47.95
2018-10-16T04:44:48.311Z,48.16
2018-10-16T04:47:15.737Z,48.53
2018-10-16T04:49:43.153Z,48.63
2018-10-16T04:52:10.575Z,48.83
2018-10-16T04:54:37.992Z,48.21
2018-10-16T04:57:05.407Z,48.70
2018-10-16T04:59:32.828Z,48.59
2018-10-16T05:02:00.243Z,48.55
2018-10-16T05:07:17.234Z,48.15
2018-10-16T05:09:44.658Z,48.54
2018-10-16T05:12:12.100Z,48.26
2018-10-16T05:14:39.556Z,47.90
2018-10-16T05:17:06.978Z,48.18
2018-10-16T05:19:34.405Z,48.05
2018-10-16T05:22:01.853Z,48.35
2018-10-16T05:24:29.275Z,47.89
2018-10-16T05:26:56.693Z,48.36
2018-10-16T05:29:24.120Z,47.99
2018-10-16T05:31:51.590Z,47.89
2018-10-16T05:34:19.033Z,48.13
2018-10-16T05:36:46.493Z,48.04
2018-10-16T05:39:13.971Z,48.02
2018-10-16T05:41:41.379Z,48.19
2018-10-16T05:44:09.107Z,47.96
2018-10-16T05:46:36.575Z,48.08
2018-10-16T05:49:04.250Z,48.19
2018-10-16T05:51:31.768Z,48.22
2018-10-16T05:53:59.190Z,47.66
2018-10-16T05:56:26.627Z,47.76
2018-10-16T05:58:54.044Z,48.05
2018-10-16T06:01:21.467Z,47.95
2018-10-16T06:03:48.884Z,48.35
2018-10-16T06:06:16.320Z,48.42
2018-10-16T06:08:43.750Z,48.55
2018-10-16T06:11:11.272Z,48.72
2018-10-16T06:13:38.695Z,47.95
2018-10-16T06:16:06.132Z,48.24
2018-10-16T06:18:33.541Z,48.59
2018-10-16T06:21:01.633Z,48.75
2018-10-16T06:23:29.280Z,48.42
2018-10-16T06:25:56.709Z,48.28
2018-10-16T06:28:25.494Z,47.57
2018-10-16T06:30:52.914Z,47.49
2018-10-16T06:33:22.977Z,46.77
2018-10-16T06:35:50.354Z,46.98
2018-10-16T06:38:17.796Z,47.33
2018-10-16T06:40:45.337Z,46.94
2018-10-16T06:43:12.899Z,46.77
2018-10-16T06:45:40.324Z,46.52
2018-10-16T06:48:08.332Z,46.10
2018-10-16T06:50:35.676Z,46.58
2018-10-16T06:53:03.288Z,46.11
2018-10-16T06:55:30.672Z,46.37
2018-10-16T06:57:58.187Z,47.08
2018-10-16T07:00:25.633Z,46.17
2018-10-16T07:02:53.114Z,46.76
2018-10-16T07:05:20.532Z,46.92
2018-10-16T07:07:47.952Z,47.07
2018-10-16T07:10:15.485Z,46.74
2018-10-16T07:12:42.941Z,46.75
2018-10-16T07:15:10.630Z,46.90
2018-10-16T07:17:38.061Z,46.52
2018-10-16T07:20:05.461Z,46.39
2018-10-16T07:22:32.894Z,46.49
2018-10-16T07:25:00.313Z,46.05
2018-10-16T07:27:27.747Z,45.65
2018-10-16T07:29:55.187Z,45.31
2018-10-16T07:32:22.611Z,44.80
2018-10-16T07:34:50.088Z,45.74
2018-10-16T07:37:17.513Z,45.60
2018-10-16T07:39:44.924Z,45.52
2018-10-16T07:42:12.360Z,44.69
2018-10-16T07:44:39.792Z,44.63
2018-10-16T07:47:07.465Z,43.76
2018-10-16T07:49:34.879Z,43.27
2018-10-16T07:52:02.365Z,43.30
2018-10-16T07:54:29.845Z,42.84
2018-10-16T07:56:57.231Z,43.12
2018-10-16T07:59:24.654Z,42.30
2018-10-16T08:01:52.093Z,42.31
2018-10-16T08:04:19.538Z,42.40
2018-10-16T08:06:46.962Z,42.00
2018-10-16T08:09:15.576Z,42.25
2018-10-16T08:11:47.312Z,42.73
2018-10-16T08:14:15.902Z,43.63
2018-10-16T08:16:44.485Z,42.78
2018-10-16T08:19:12.044Z,43.38
2018-10-16T08:21:39.475Z,42.59
2018-10-16T08:24:07.162Z,42.71
2018-10-16T08:26:34.590Z,43.09
2018-10-16T08:29:02.106Z,42.07
2018-10-16T08:31:30.261Z,42.38
2018-10-16T08:33:57.764Z,42.20
2018-10-16T08:36:25.264Z,41.99
2018-10-16T08:38:52.542Z,42.65
2018-10-16T08:41:19.972Z,42.60
2018-10-16T08:43:48.984Z,41.61
2018-10-16T08:46:16.393Z,41.23
2018-10-16T08:48:44.413Z,41.03
2018-10-16T08:51:12.001Z,41.46
2018-10-16T08:53:39.433Z,41.69
2018-10-16T08:56:06.853Z,41.30
2018-10-16T08:58:34.390Z,41.68
2018-10-16T09:01:01.810Z,40.79
2018-10-16T09:03:29.244Z,40.55
2018-10-16T09:05:56.679Z,40.42
2018-10-16T09:08:24.114Z,40.81
2018-10-16T09:10:51.551Z,40.08
2018-10-16T09:13:18.977Z,40.61
2018-10-16T09:15:46.466Z,39.97
2018-10-16T09:18:13.889Z,39.97
2018-10-16T09:20:41.329Z,40.33
2018-10-16T09:23:08.897Z,39.65
2018-10-16T09:25:36.324Z,40.09
2018-10-16T09:28:04.067Z,40.86
2018-10-16T09:30:31.492Z,40.58
2018-10-16T09:32:58.932Z,39.67
2018-10-16T09:35:26.582Z,40.19
2018-10-16T09:37:54.033Z,39.34
2018-10-16T09:40:21.454Z,39.46
2018-10-16T09:42:48.876Z,39.62
2018-10-16T09:45:16.381Z,39.13
2018-10-16T09:47:43.830Z,39.44
2018-10-16T09:50:11.292Z,39.28
2018-10-16T09:52:38.813Z,39.23
2018-10-16T09:55:06.249Z,38.75
2018-10-16T09:57:33.672Z,39.35
2018-10-16T10:00:01.357Z,38.95
2018-10-16T10:02:28.784Z,38.27
2018-10-16T10:04:56.340Z,37.95
2018-10-16T10:07:23.769Z,38.44
2018-10-16T10:09:51.192Z,38.38
2018-10-16T10:12:18.652Z,38.50
2018-10-16T10:14:46.073Z,37.93
2018-10-16T10:17:13.501Z,37.63
2018-10-16T10:19:40.932Z,38.23
2018-10-16T10:22:08.365Z,37.81
2018-10-16T10:24:35.805Z,38.03
2018-10-16T10:27:03.268Z,37.49
2018-10-16T10:29:30.810Z,36.25
2018-10-16T10:31:58.176Z,36.43
2018-10-16T10:34:25.630Z,36.90
2018-10-16T10:36:53.057Z,37.20
2018-10-16T10:39:20.545Z,37.24
2018-10-16T10:41:47.964Z,37.45
2018-10-16T10:44:15.484Z,37.56
2018-10-16T10:46:42.896Z,36.73
2018-10-16T10:49:10.327Z,36.53
2018-10-16T10:51:38.171Z,36.69
2018-10-16T10:54:05.179Z,37.18
2018-10-16T10:56:32.722Z,36.42
2018-10-16T10:59:00.073Z,36.64
2018-10-16T11:01:27.605Z,36.81
2018-10-16T11:03:55.027Z,36.03
2018-10-16T11:06:22.456Z,36.35
2018-10-16T11:08:49.903Z,36.10
2018-10-16T11:11:17.395Z,36.72
2018-10-16T11:13:44.824Z,36.44
2018-10-16T11:16:12.512Z,36.77
2018-10-16T11:18:39.956Z,36.00
2018-10-16T11:21:08.044Z,36.45
2018-10-16T11:23:35.500Z,36.13
2018-10-16T11:26:02.939Z,35.66
2018-10-16T11:28:30.411Z,35.76
2018-10-16T11:30:57.828Z,35.67
2018-10-16T11:33:25.261Z,35.03
2018-10-16T11:35:52.683Z,35.01
2018-10-16T11:38:20.113Z,35.17
2018-10-16T11:40:47.539Z,35.10
2018-10-16T11:43:15.048Z,35.23
2018-10-16T11:45:42.494Z,35.23
2018-10-16T11:48:09.860Z,35.56
2018-10-16T11:50:37.401Z,35.69
2018-10-16T11:53:04.816Z,35.08
2018-10-16T11:55:32.250Z,35.72
2018-10-16T11:57:59.700Z,35.31
2018-10-16T12:00:27.160Z,36.34
2018-10-16T12:02:55.196Z,35.59
2018-10-16T12:05:22.852Z,36.06
2018-10-16T12:07:50.308Z,35.55
2018-10-16T12:10:17.688Z,35.66
2018-10-16T12:12:45.116Z,36.19
2018-10-16T12:15:12.620Z,35.88
2018-10-16T12:17:45.496Z,35.58
2018-10-16T12:20:17.636Z,36.01
2018-10-16T12:22:45.772Z,35.85
2018-10-16T12:25:13.263Z,36.36
2018-10-16T12:27:40.634Z,36.77
2018-10-16T12:30:08.383Z,35.41
2018-10-16T12:32:36.161Z,35.57
2018-10-16T12:35:03.588Z,36.57
2018-10-16T12:37:31.013Z,36.46
2018-10-16T12:39:58.462Z,36.23
2018-10-16T12:42:25.881Z,36.53
2018-10-16T12:44:53.407Z,35.51
2018-10-16T12:47:20.793Z,36.98
2018-10-16T12:49:48.224Z,36.49
2018-10-16T12:52:15.640Z,36.46
2018-10-16T12:54:43.069Z,36.35
2018-10-16T12:57:10.503Z,36.76
2018-10-16T12:59:37.918Z,35.96
2018-10-16T13:02:05.367Z,36.17
2018-10-16T13:04:32.837Z,36.29
2018-10-16T13:07:06.601Z,36.46
2018-10-16T13:09:34.020Z,36.73
2018-10-16T13:12:01.438Z,35.80
2018-10-16T13:14:29.037Z,36.42
2018-10-16T13:16:56.527Z,35.83
2018-10-16T13:19:23.920Z,36.05
2018-10-16T13:21:51.446Z,36.39
2018-10-16T13:24:18.955Z,36.10
2018-10-16T13:26:46.368Z,36.35
2018-10-16T13:29:13.864Z,36.43
2018-10-16T13:31:41.232Z,36.30
2018-10-16T13:34:08.734Z,35.74
2018-10-16T13:36:36.135Z,35.64
2018-10-16T13:39:04.757Z,35.44
2018-10-16T13:41:32.206Z,35.37
2018-10-16T13:43:59.711Z,35.33
2018-10-16T13:46:27.136Z,36.01
2018-10-16T13:48:54.608Z,35.22
2018-10-16T13:51:22.058Z,35.11
2018-10-16T13:53:49.518Z,35.72
2018-10-16T13:56:16.967Z,35.92
2018-10-16T13:58:44.403Z,35.51
2018-10-16T14:01:11.855Z,35.51
2018-10-16T14:03:39.308Z,36.28
2018-10-16T14:06:06.744Z,35.52
2018-10-16T14:08:34.198Z,35.21
2018-10-16T14:11:01.636Z,36.30
2018-10-16T14:13:29.079Z,35.67
2018-10-16T14:15:56.523Z,35.59
2018-10-16T14:18:23.965Z,35.76
2018-10-16T14:20:51.427Z,35.86
2018-10-16T14:23:18.889Z,36.53
2018-10-16T14:25:46.319Z,36.09
2018-10-16T14:28:13.848Z,36.34
2018-10-16T14:30:41.218Z,37.08
2018-10-16T14:33:10.490Z,36.38
2018-10-16T14:35:37.916Z,37.23
2018-10-16T14:38:05.412Z,36.39
2018-10-16T14:40:32.788Z,37.16
2018-10-16T14:43:00.345Z,37.47
2018-10-16T14:45:27.785Z,37.27
2018-10-16T14:47:55.243Z,37.19
2018-10-16T14:50:22.634Z,37.01
2018-10-16T14:52:50.069Z,37.33
2018-10-16T14:55:17.540Z,37.30
2018-10-16T14:57:45.044Z,37.53
2018-10-16T15:00:13.233Z,37.15
2018-10-16T15:02:40.649Z,37.15
2018-10-16T15:05:08.659Z,37.47
2018-10-16T15:07:36.369Z,37.91
2018-10-16T15:10:03.927Z,37.84
2018-10-16T15:12:32.288Z,38.07
2018-10-16T15:15:00.483Z,38.52
2018-10-16T15:17:28.524Z,38.60
2018-10-16T15:19:55.953Z,38.41
2018-10-16T15:22:23.397Z,39.56
2018-10-16T15:24:50.810Z,39.03
2018-10-16T15:27:18.449Z,39.00
2018-10-16T15:29:45.867Z,39.33
2018-10-16T15:32:13.430Z,39.27
2018-10-16T15:34:40.769Z,40.08
2018-10-16T15:37:08.276Z,40.35
2018-10-16T15:39:35.712Z,40.31
2018-10-16T15:42:03.158Z,40.86
2018-10-16T15:44:30.560Z,40.65
2018-10-16T15:46:57.992Z,40.87
2018-10-16T15:49:25.494Z,40.79
2018-10-16T15:51:52.957Z,41.52
2018-10-16T15:54:20.344Z,41.43
2018-10-16T15:56:47.787Z,42.29
2018-10-16T15:59:15.229Z,41.98
2018-10-16T16:01:42.656Z,41.83
2018-10-16T16:04:10.223Z,42.83
2018-10-16T16:06:37.584Z,42.60
2018-10-16T16:09:05.746Z,42.74
2018-10-16T16:11:33.176Z,43.35
2018-10-16T16:14:01.545Z,42.90
2018-10-16T16:16:28.918Z,42.83
2018-10-16T16:18:56.361Z,44.23
2018-10-16T16:21:23.792Z,44.55
2018-10-16T16:23:51.385Z,45.49
2018-10-16T16:26:18.876Z,45.79
2018-10-16T16:28:46.253Z,46.65
2018-10-16T16:31:13.716Z,47.95
2018-10-16T16:33:41.131Z,48.22
2018-10-16T16:36:08.719Z,48.66
2018-10-16T16:38:36.001Z,50.22
2018-10-16T16:41:03.489Z,49.74
2018-10-16T16:43:31.554Z,49.03
2018-10-16T16:45:59.000Z,49.81
2018-10-16T16:48:26.372Z,49.83
2018-10-16T16:50:53.792Z,49.53
2018-10-16T16:53:21.231Z,50.55
2018-10-16T16:55:49.416Z,50.31
2018-10-16T16:58:16.873Z,51.27
2018-10-16T17:00:44.425Z,51.47
2018-10-16T17:03:11.887Z,52.00
2018-10-16T17:05:39.315Z,52.35
2018-10-16T17:08:06.775Z,52.73
2018-10-16T17:10:34.255Z,53.49
2018-10-16T17:13:01.904Z,52.75
2018-10-16T17:15:29.385Z,52.66
2018-10-16T17:17:56.845Z,53.43
2018-10-16T17:20:24.294Z,55.09
2018-10-16T17:22:51.752Z,55.31
2018-10-16T17:25:19.373Z,54.85
2018-10-16T17:27:46.672Z,54.50
2018-10-16T17:30:14.812Z,54.86
2018-10-16T17:32:43.024Z,55.16
2018-10-16T17:35:11.399Z,54.54
2018-10-16T17:37:39.332Z,54.97
2018-10-16T17:40:06.760Z,56.14
2018-10-16T17:42:34.280Z,56.68
2018-10-16T17:45:01.734Z,57.08
2018-10-16T17:47:29.231Z,57.28
2018-10-16T17:49:56.657Z,57.47
2018-10-16T17:52:24.134Z,57.28
2018-10-16T17:54:51.557Z,56.53
2018-10-16T17:57:19.036Z,56.90
2018-10-16T17:59:46.420Z,57.46
2018-10-16T18:02:13.858Z,58.49
2018-10-16T18:04:41.307Z,58.00
2018-10-16T18:07:08.712Z,58.33
2018-10-16T18:09:36.208Z,57.99
2018-10-16T18:12:03.608Z,58.24
2018-10-16T18:14:31.034Z,57.59
2018-10-16T18:16:58.456Z,57.70
2018-10-16T18:19:25.880Z,58.31
2018-10-16T18:21:53.395Z,57.69
2018-10-16T18:24:20.823Z,58.07
2018-10-16T18:26:48.261Z,58.22
2018-10-16T18:29:15.694Z,58.52
2018-10-16T18:31:43.129Z,61.34
2018-10-16T18:34:10.562Z,61.85
2018-10-16T18:36:37.988Z,60.71
2018-10-16T18:39:05.478Z,60.43
2018-10-16T18:41:32.845Z,60.49
2018-10-16T18:44:00.280Z,59.89
2018-10-16T18:46:27.708Z,58.96
2018-10-16T18:48:55.270Z,58.91
2018-10-16T18:51:22.629Z,58.78
2018-10-16T18:53:50.044Z,59.97
2018-10-16T18:56:17.473Z,61.03
2018-10-16T18:58:44.960Z,61.24
2018-10-16T19:01:12.397Z,61.38
2018-10-16T19:03:39.825Z,62.06
2018-10-16T19:06:07.260Z,64.60
2018-10-16T19:08:34.685Z,64.44
2018-10-16T19:11:02.138Z,63.68
2018-10-16T19:13:29.605Z,62.83
2018-10-16T19:15:57.039Z,62.61
2018-10-16T19:18:24.481Z,61.43
2018-10-16T19:20:51.909Z,62.15
2018-10-16T19:23:19.341Z,62.05
2018-10-16T19:25:46.788Z,63.42
2018-10-16T19:28:14.224Z,63.58
2018-10-16T19:30:41.656Z,63.45
2018-10-16T19:33:09.120Z,62.97
2018-10-16T19:35:36.527Z,61.96
2018-10-16T19:38:04.089Z,62.55
2018-10-16T19:40:31.512Z,63.42
2018-10-16T19:42:58.992Z,63.56
2018-10-16T19:45:26.430Z,63.64
2018-10-16T19:47:53.872Z,64.05
2018-10-16T19:50:21.466Z,63.88
2018-10-16T19:52:48.868Z,64.05
2018-10-16T19:55:16.296Z,64.88
2018-10-16T19:57:43.743Z,66.25
2018-10-16T20:00:11.194Z,66.16
2018-10-16T20:02:38.724Z,65.95
2018-10-16T20:05:06.162Z,64.89
2018-10-16T20:07:33.605Z,65.22
2018-10-16T20:10:01.127Z,65.62
2018-10-16T20:12:28.563Z,67.91
2018-10-16T20:14:56.044Z,67.40
2018-10-16T20:17:23.464Z,67.21
2018-10-16T20:19:50.903Z,66.59
2018-10-16T20:22:18.335Z,67.80
2018-10-16T20:24:45.852Z,68.82
2018-10-16T20:27:13.212Z,68.92
2018-10-16T20:29:40.650Z,69.67
2018-10-16T20:32:08.077Z,69.06
2018-10-16T20:34:35.596Z,68.78
2018-10-16T20:37:03.077Z,68.39
2018-10-16T20:39:30.476Z,67.91
2018-10-16T20:41:57.920Z,68.19
2018-10-16T20:44:25.334Z,68.43
2018-10-16T20:46:52.760Z,68.80
2018-10-16T20:49:20.212Z,68.00
2018-10-16T20:51:47.644Z,67.62
2018-10-16T20:54:15.081Z,67.26
2018-10-16T20:56:42.505Z,67.42
2018-10-16T20:59:09.944Z,67.25
2018-10-16T21:01:37.360Z,67.41
2018-10-16T21:04:04.884Z,68.04
2018-10-16T21:06:32.432Z,68.04
2018-10-16T21:08:59.757Z,68.01
2018-10-16T21:11:27.252Z,67.94
2018-10-16T21:13:54.682Z,68.33
2018-10-16T21:16:22.099Z,68.91
2018-10-16T21:18:49.528Z,68.11
2018-10-16T21:21:16.959Z,68.39
2018-10-16T21:23:44.399Z,69.29
2018-10-16T21:26:11.835Z,68.57
2018-10-16T21:28:39.257Z,68.71
2018-10-16T21:31:06.762Z,68.84
2018-10-16T21:33:34.164Z,68.54
2018-10-16T21:36:01.600Z,68.17
2018-10-16T21:38:29.260Z,68.74
2018-10-16T21:40:56.762Z,68.42
2018-10-16T21:43:24.143Z,68.45
2018-10-16T21:45:51.571Z,68.38
2018-10-16T21:48:19.190Z,69.57
2018-10-16T21:50:46.635Z,69.84
2018-10-16T21:53:14.154Z,69.76
2018-10-16T21:55:41.698Z,69.99
2018-10-16T21:58:09.135Z,68.94
2018-10-16T22:00:41.983Z,68.76
2018-10-16T22:03:09.410Z,69.82
2018-10-16T22:05:36.839Z,69.18
2018-10-16T22:08:04.384Z,69.49
2018-10-16T22:10:31.720Z,69.50
2018-10-16T22:13:00.181Z,69.17
2018-10-16T22:15:27.606Z,68.79
2018-10-16T22:17:55.002Z,68.66
2018-10-16T22:20:22.432Z,69.48
2018-10-16T22:22:49.859Z,70.01
2018-10-16T22:25:17.506Z,70.64
2018-10-16T22:27:44.898Z,70.80
2018-10-16T22:30:12.328Z,70.46
2018-10-16T22:32:39.748Z,70.56
2018-10-16T22:35:07.388Z,71.60
2018-10-16T22:37:34.775Z,72.45
2018-10-16T22:40:02.216Z,71.08
2018-10-16T22:42:29.647Z,71.46
2018-10-16T22:44:57.172Z,71.70
2018-10-16T22:47:24.588Z,71.01
2018-10-16T22:49:52.032Z,71.58
2018-10-16T22:52:19.456Z,71.63
2018-10-16T22:54:46.890Z,72.61
2018-10-16T22:57:14.316Z,73.20
2018-10-16T22:59:42.167Z,73.65
2018-10-16T23:02:09.601Z,72.66
2018-10-16T23:04:37.071Z,71.90
2018-10-16T23:07:04.499Z,72.12
2018-10-16T23:09:31.927Z,71.63
2018-10-16T23:11:59.360Z,71.40
2018-10-16T23:14:26.800Z,71.44
2018-10-16T23:16:54.267Z,70.48
2018-10-16T23:19:21.695Z,70.64
2018-10-16T23:21:49.176Z,71.16
2018-10-16T23:24:16.728Z,72.12
2018-10-16T23:26:44.152Z,71.29
2018-10-16T23:29:11.669Z,71.85
2018-10-16T23:31:39.100Z,72.28
2018-10-16T23:34:06.531Z,71.85
2018-10-16T23:36:33.971Z,72.62
2018-10-16T23:39:01.404Z,74.35
2018-10-16T23:41:28.868Z,76.51
2018-10-16T23:43:56.286Z,74.69
2018-10-16T23:46:30.203Z,74.60
2018-10-16T23:48:57.666Z,73.94
2018-10-16T23:51:25.068Z,73.86
2018-10-16T23:53:52.501Z,73.84
2018-10-16T23:56:19.925Z,73.32
2018-10-16T23:58:47.396Z,73.37
